createdAt,value
2022-10-10T00:01:01.259Z,78.08
2022-10-10T00:03:30.307Z,79.15
2022-10-10T00:06:00.482Z,79.08
2022-10-10T00:08:28.251Z,79.10
2022-10-10T00:10:55.985Z,80.11
2022-10-10T00:13:23.835Z,79.67
2022-10-10T00:15:51.634Z,78.76
2022-10-10T00:18:19.303Z,78.64
2022-10-10T00:20:50.223Z,78.68
2022-10-10T00:23:18.529Z,78.24
2022-10-10T00:25:46.380Z,78.71
2022-10-10T00:28:14.185Z,78.43
2022-10-10T00:30:41.989Z,79.16
2022-10-10T00:33:09.889Z,79.46
2022-10-10T00:35:38.168Z,79.18
2022-10-10T00:38:07.664Z,79.43
2022-10-10T00:40:45.211Z,78.57
2022-10-10T00:43:15.469Z,78.08
2022-10-10T00:45:45.586Z,78.06
2022-10-10T00:48:16.583Z,77.76
2022-10-10T00:50:53.076Z,77.78
2022-10-10T00:53:26.823Z,79.14
2022-10-10T00:55:55.625Z,78.46
2022-10-10T00:58:24.091Z,78.40
2022-10-10T01:00:53.040Z,78.72
2022-10-10T01:03:21.058Z,78.55
2022-10-10T01:05:50.616Z,78.11
2022-10-10T01:08:19.531Z,78.46
2022-10-10T01:11:13.613Z,78.30
2022-10-10T01:13:52.653Z,78.38
2022-10-10T01:16:28.713Z,77.89
2022-10-10T01:19:07.427Z,77.21
2022-10-10T01:21:45.799Z,76.97
2022-10-10T01:24:50.275Z,76.75
2022-10-10T01:27:31.400Z,76.71
2022-10-10T01:30:03.672Z,76.58
2022-10-10T01:32:36.388Z,76.58
2022-10-10T01:35:16.217Z,76.54
2022-10-10T01:37:49.903Z,77.46
2022-10-10T01:40:26.579Z,76.90
2022-10-10T01:42:56.697Z,76.84
2022-10-10T01:45:26.045Z,77.17
2022-10-10T01:47:56.934Z,77.22
2022-10-10T01:50:27.375Z,76.85
2022-10-10T01:53:09.641Z,77.36
2022-10-10T01:55:52.097Z,76.86
2022-10-10T01:58:38.839Z,76.96
2022-10-10T02:01:16.366Z,77.51
2022-10-10T02:03:47.096Z,79.91
2022-10-10T02:06:20.576Z,82.48
2022-10-10T02:08:52.827Z,82.43
2022-10-10T02:11:20.642Z,82.85
2022-10-10T02:13:50.635Z,82.47
2022-10-10T02:16:24.447Z,80.78
2022-10-10T02:18:54.318Z,80.01
2022-10-10T02:21:23.939Z,79.15
2022-10-10T02:23:53.916Z,83.04
2022-10-10T02:26:24.618Z,83.18
2022-10-10T02:28:56.657Z,82.37
2022-10-10T02:31:32.588Z,81.43
2022-10-10T02:34:12.683Z,80.78
2022-10-10T02:36:43.823Z,80.36
2022-10-10T02:39:13.495Z,81.34
2022-10-10T02:41:43.813Z,81.65
2022-10-10T02:44:12.960Z,81.09
2022-10-10T02:46:42.455Z,81.76
2022-10-10T02:49:10.681Z,82.26
2022-10-10T02:51:39.245Z,83.61
2022-10-10T02:54:07.815Z,82.67
2022-10-10T02:56:35.513Z,82.21
2022-10-10T02:59:03.207Z,84.09
2022-10-10T03:01:31.023Z,84.56
2022-10-10T03:04:00.035Z,83.99
2022-10-10T03:06:27.763Z,82.68
2022-10-10T03:08:55.425Z,85.04
2022-10-10T03:11:23.088Z,87.60
2022-10-10T03:13:50.744Z,89.41
2022-10-10T03:16:18.430Z,89.55
2022-10-10T03:18:46.130Z,88.94
2022-10-10T03:21:15.187Z,85.63
2022-10-10T03:23:43.336Z,87.35
2022-10-10T03:26:13.393Z,88.59
2022-10-10T03:28:41.174Z,87.22
2022-10-10T03:31:08.919Z,86.05
2022-10-10T03:33:36.641Z,85.76
2022-10-10T03:36:04.968Z,88.69
2022-10-10T03:38:34.069Z,87.33
2022-10-10T03:41:01.788Z,88.61
2022-10-10T03:43:29.575Z,91.78
2022-10-10T03:45:57.258Z,94.49
2022-10-10T03:48:24.931Z,93.01
2022-10-10T03:50:52.655Z,93.13
2022-10-10T03:53:20.337Z,93.75
2022-10-10T03:55:49.478Z,92.15
2022-10-10T03:58:20.192Z,90.57
2022-10-10T04:00:55.891Z,91.14
2022-10-10T04:03:24.302Z,88.52
2022-10-10T04:05:52.393Z,92.82
2022-10-10T04:08:20.619Z,92.28
2022-10-10T04:10:51.364Z,92.01
2022-10-10T04:13:19.983Z,90.89
2022-10-10T04:15:51.085Z,91.33
2022-10-10T04:18:18.812Z,88.90
2022-10-10T04:20:46.569Z,88.96
2022-10-10T04:23:14.734Z,90.47
2022-10-10T04:25:42.858Z,91.59
2022-10-10T04:28:14.127Z,91.77
2022-10-10T04:30:42.308Z,93.88
2022-10-10T04:33:10.406Z,95.65
2022-10-10T04:35:38.209Z,96.59
2022-10-10T04:38:06.072Z,95.69
2022-10-10T04:40:33.996Z,97.99
2022-10-10T04:43:01.781Z,98.31
2022-10-10T04:45:35.230Z,96.97
2022-10-10T04:48:05.369Z,94.93
2022-10-10T04:50:33.246Z,92.68
2022-10-10T04:53:01.301Z,93.12
2022-10-10T04:55:29.064Z,94.81
2022-10-10T04:57:56.856Z,94.04
2022-10-10T05:00:24.959Z,95.55
2022-10-10T05:02:54.452Z,96.14
2022-10-10T05:05:24.760Z,95.17
2022-10-10T05:07:55.480Z,94.70
2022-10-10T05:10:27.038Z,95.19
2022-10-10T05:12:54.909Z,93.96
2022-10-10T05:15:22.724Z,96.07
2022-10-10T05:17:50.616Z,98.03
2022-10-10T05:20:19.965Z,97.41
2022-10-10T05:22:47.865Z,96.42
2022-10-10T05:25:15.714Z,95.50
2022-10-10T05:27:43.491Z,94.96
2022-10-10T05:30:12.214Z,96.47
2022-10-10T05:32:39.950Z,94.02
2022-10-10T05:35:08.878Z,94.00
2022-10-10T05:37:38.036Z,95.37
2022-10-10T05:40:06.716Z,97.82
2022-10-10T05:42:34.455Z,95.40
2022-10-10T05:45:02.201Z,95.67
2022-10-10T05:47:29.902Z,94.51
2022-10-10T05:49:57.593Z,95.58
2022-10-10T05:52:25.336Z,94.06
2022-10-10T05:54:54.372Z,93.11
2022-10-10T05:57:22.063Z,95.63
2022-10-10T05:59:49.754Z,97.45
2022-10-10T06:02:17.525Z,98.60
2022-10-10T06:04:45.275Z,98.26
2022-10-10T06:07:12.951Z,98.81
2022-10-10T06:09:40.712Z,98.54
2022-10-10T06:12:11.979Z,97.02
2022-10-10T06:14:39.713Z,97.95
2022-10-10T06:17:07.403Z,98.02
2022-10-10T06:19:37.169Z,98.62
2022-10-10T06:22:04.938Z,98.28
2022-10-10T06:24:32.942Z,98.79
2022-10-10T06:27:00.750Z,97.47
2022-10-10T06:29:29.967Z,96.60
2022-10-10T06:31:57.897Z,97.86
2022-10-10T06:34:25.609Z,95.27
2022-10-10T06:36:53.427Z,93.53
2022-10-10T06:39:21.237Z,91.53
2022-10-10T06:41:51.390Z,92.79
2022-10-10T06:44:19.920Z,92.85
2022-10-10T06:46:48.974Z,90.85
2022-10-10T06:49:16.777Z,89.86
2022-10-10T06:51:44.505Z,90.25
2022-10-10T06:54:12.621Z,90.49
2022-10-10T06:56:40.334Z,88.75
2022-10-10T06:59:08.194Z,90.00
2022-10-10T07:01:38.117Z,89.62
2022-10-10T07:04:07.197Z,89.13
2022-10-10T07:06:35.219Z,87.97
2022-10-10T07:09:02.962Z,86.79
2022-10-10T07:11:30.699Z,88.69
2022-10-10T07:13:58.392Z,87.43
2022-10-10T07:16:26.123Z,87.21
2022-10-10T07:18:53.881Z,85.39
2022-10-10T07:21:22.978Z,84.26
2022-10-10T07:23:52.795Z,82.83
2022-10-10T07:26:22.289Z,81.64
2022-10-10T07:28:50.126Z,82.04
2022-10-10T07:31:17.793Z,81.82
2022-10-10T07:33:50.531Z,80.44
2022-10-10T07:36:19.347Z,80.97
2022-10-10T07:38:51.728Z,80.55
2022-10-10T07:41:20.792Z,80.31
2022-10-10T07:43:48.560Z,81.04
2022-10-10T07:46:17.942Z,80.34
2022-10-10T07:48:45.966Z,80.66
2022-10-10T07:51:13.894Z,80.34
2022-10-10T07:53:42.020Z,79.45
2022-10-10T07:56:11.804Z,78.84
2022-10-10T07:58:39.907Z,78.80
2022-10-10T08:01:09.652Z,78.71
2022-10-10T08:03:40.344Z,79.24
2022-10-10T08:06:10.496Z,79.55
2022-10-10T08:08:48.582Z,78.55
2022-10-10T08:11:20.123Z,78.88
2022-10-10T08:13:48.103Z,78.83
2022-10-10T08:16:15.975Z,78.68
2022-10-10T08:18:43.778Z,78.27
2022-10-10T08:21:13.595Z,77.37
2022-10-10T08:23:41.538Z,77.93
2022-10-10T08:26:11.172Z,76.60
2022-10-10T08:28:40.856Z,76.29
2022-10-10T08:31:14.337Z,75.38
2022-10-10T08:33:43.169Z,76.02
2022-10-10T08:36:13.470Z,75.53
2022-10-10T08:38:44.270Z,75.59
2022-10-10T08:41:28.717Z,76.47
2022-10-10T08:44:00.942Z,76.07
2022-10-10T08:46:37.362Z,74.81
2022-10-10T08:49:20.368Z,74.76
2022-10-10T08:51:55.777Z,70.45
2022-10-10T08:54:26.798Z,71.34
2022-10-10T08:56:59.498Z,71.43
2022-10-10T08:59:32.611Z,71.30
2022-10-10T09:02:33.320Z,70.59
2022-10-10T09:05:08.758Z,70.08
2022-10-10T09:07:50.223Z,69.34
2022-10-10T09:10:29.902Z,69.28
2022-10-10T09:13:04.854Z,68.74
2022-10-10T09:15:38.150Z,69.37
2022-10-10T09:18:17.389Z,67.39
2022-10-10T09:20:52.498Z,67.70
2022-10-10T09:23:26.348Z,66.54
2022-10-10T09:25:58.472Z,68.30
2022-10-10T09:28:37.448Z,68.74
2022-10-10T09:31:17.441Z,67.57
2022-10-10T09:33:49.621Z,67.71
2022-10-10T09:36:22.189Z,67.33
2022-10-10T09:38:53.724Z,66.01
2022-10-10T09:41:26.406Z,63.27
2022-10-10T09:43:57.459Z,65.85
2022-10-10T09:46:27.299Z,64.22
2022-10-10T09:48:58.699Z,63.18
2022-10-10T09:51:26.418Z,63.34
2022-10-10T09:53:56.250Z,63.57
2022-10-10T09:56:28.071Z,65.23
2022-10-10T09:58:57.071Z,65.05
2022-10-10T10:01:28.771Z,64.30
2022-10-10T10:04:28.206Z,64.96
2022-10-10T10:07:06.609Z,66.49
2022-10-10T10:09:34.699Z,64.61
2022-10-10T10:12:05.249Z,64.49
2022-10-10T10:14:38.841Z,64.31
2022-10-10T10:17:10.348Z,64.79
2022-10-10T10:19:40.228Z,64.72
2022-10-10T10:22:26.690Z,64.90
2022-10-10T10:24:55.265Z,65.69
2022-10-10T10:27:25.316Z,64.56
2022-10-10T10:29:54.844Z,65.89
2022-10-10T10:32:46.182Z,65.26
2022-10-10T10:35:21.799Z,64.24
2022-10-10T10:38:02.894Z,66.49
2022-10-10T10:40:40.035Z,65.29
2022-10-10T10:43:36.394Z,65.00
2022-10-10T10:46:16.766Z,65.06
2022-10-10T10:48:48.187Z,64.60
2022-10-10T10:51:40.627Z,65.37
2022-10-10T10:54:26.012Z,64.31
2022-10-10T10:57:06.081Z,65.08
2022-10-10T11:00:21.616Z,64.20
2022-10-10T11:02:57.696Z,60.74
2022-10-10T11:05:41.602Z,61.27
2022-10-10T11:08:33.227Z,60.70
2022-10-10T11:11:14.150Z,59.43
2022-10-10T11:13:49.236Z,59.86
2022-10-10T11:16:46.961Z,58.46
2022-10-10T11:19:23.932Z,57.60
2022-10-10T11:21:58.963Z,55.04
2022-10-10T11:24:37.164Z,55.11
2022-10-10T11:27:13.959Z,53.56
2022-10-10T11:29:55.333Z,54.31
2022-10-10T11:32:29.041Z,53.87
2022-10-10T11:35:10.998Z,55.38
2022-10-10T11:37:46.109Z,54.49
2022-10-10T11:40:28.870Z,55.29
2022-10-10T11:43:01.911Z,54.94
2022-10-10T11:45:36.183Z,54.18
2022-10-10T11:48:15.160Z,52.68
2022-10-10T11:50:44.457Z,52.51
2022-10-10T11:53:21.160Z,54.09
2022-10-10T11:55:57.867Z,53.99
2022-10-10T11:58:31.213Z,55.37
2022-10-10T12:01:05.184Z,52.31
2022-10-10T12:03:35.081Z,54.15
2022-10-10T12:06:08.769Z,55.54
2022-10-10T12:08:44.947Z,53.55
2022-10-10T12:11:20.026Z,53.76
2022-10-10T12:13:53.992Z,54.67
2022-10-10T12:16:30.349Z,52.20
2022-10-10T12:19:02.947Z,51.16
2022-10-10T12:21:32.480Z,52.79
2022-10-10T12:24:11.996Z,52.63
2022-10-10T12:27:31.357Z,54.72
2022-10-10T12:30:21.583Z,53.60
2022-10-10T12:32:52.847Z,53.23
2022-10-10T12:35:38.868Z,53.18
2022-10-10T12:38:17.867Z,54.20
2022-10-10T12:41:20.037Z,56.54
2022-10-10T12:44:12.376Z,56.66
2022-10-10T12:46:40.469Z,58.51
2022-10-10T12:49:20.945Z,58.04
2022-10-10T12:52:01.552Z,55.96
2022-10-10T12:54:33.488Z,58.45
2022-10-10T12:57:09.990Z,59.85
2022-10-10T12:59:39.426Z,58.71
2022-10-10T13:02:17.543Z,57.56
2022-10-10T13:04:47.416Z,58.16
2022-10-10T13:07:17.685Z,57.68
2022-10-10T13:09:51.366Z,58.68
2022-10-10T13:12:26.305Z,57.72
2022-10-10T13:14:54.314Z,54.80
2022-10-10T13:17:28.077Z,53.11
2022-10-10T13:19:58.341Z,54.14
2022-10-10T13:22:27.152Z,53.77
2022-10-10T13:24:55.861Z,53.08
2022-10-10T13:27:27.153Z,51.98
2022-10-10T13:29:56.299Z,51.67
2022-10-10T13:32:28.750Z,51.78
2022-10-10T13:34:58.600Z,50.61
2022-10-10T13:37:27.398Z,51.19
2022-10-10T13:39:57.801Z,55.06
2022-10-10T13:42:33.856Z,57.14
2022-10-10T13:45:03.571Z,57.42
2022-10-10T13:47:50.589Z,54.93
2022-10-10T13:50:30.327Z,53.55
2022-10-10T13:53:24.074Z,53.47
2022-10-10T13:55:52.710Z,53.37
2022-10-10T13:58:21.771Z,53.29
2022-10-10T14:00:56.735Z,53.31
2022-10-10T14:03:24.694Z,55.16
2022-10-10T14:05:52.643Z,52.59
2022-10-10T14:08:25.604Z,53.57
2022-10-10T14:11:00.487Z,53.04
2022-10-10T14:13:35.327Z,53.49
2022-10-10T14:16:22.273Z,52.49
2022-10-10T14:18:49.994Z,51.79
2022-10-10T14:21:17.773Z,53.59
2022-10-10T14:23:45.511Z,52.91
2022-10-10T14:26:16.720Z,54.16
2022-10-10T14:28:48.263Z,53.55
2022-10-10T14:31:16.243Z,54.52
2022-10-10T14:33:43.970Z,53.54
2022-10-10T14:36:13.388Z,52.91
2022-10-10T14:38:41.224Z,52.51
2022-10-10T14:41:12.946Z,52.15
2022-10-10T14:43:45.882Z,52.20
2022-10-10T14:46:19.491Z,52.82
2022-10-10T14:48:47.559Z,51.99
2022-10-10T14:51:33.932Z,53.16
2022-10-10T14:54:13.501Z,53.01
2022-10-10T14:57:07.491Z,54.37
2022-10-10T14:59:49.448Z,54.21
2022-10-10T15:02:23.882Z,54.17
2022-10-10T15:04:51.933Z,54.32
2022-10-10T15:07:20.558Z,56.00
2022-10-10T15:10:19.177Z,55.72
2022-10-10T15:12:42.779Z,56.30
2022-10-10T15:15:11.783Z,56.36
2022-10-10T15:17:41.193Z,55.79
2022-10-10T15:20:11.595Z,56.23
2022-10-10T15:22:39.647Z,57.45
2022-10-10T15:25:08.588Z,56.28
2022-10-10T15:27:37.781Z,55.76
2022-10-10T15:30:06.634Z,56.06
2022-10-10T15:32:40.907Z,55.02
2022-10-10T15:35:15.280Z,54.97
2022-10-10T15:37:43.925Z,56.26
2022-10-10T15:40:16.278Z,55.01
2022-10-10T15:42:44.191Z,56.33
2022-10-10T15:45:11.972Z,55.49
2022-10-10T15:47:46.508Z,56.37
2022-10-10T15:50:14.685Z,56.93
2022-10-10T15:52:42.452Z,57.36
2022-10-10T15:55:12.649Z,57.49
2022-10-10T15:57:40.455Z,57.80
2022-10-10T16:00:09.346Z,57.16
2022-10-10T16:02:41.247Z,58.58
2022-10-10T16:05:10.125Z,59.03
2022-10-10T16:07:46.681Z,59.38
2022-10-10T16:10:16.021Z,59.88
2022-10-10T16:12:43.919Z,60.06
2022-10-10T16:15:14.078Z,60.64
2022-10-10T16:17:43.163Z,60.12
2022-10-10T16:20:11.750Z,60.49
2022-10-10T16:22:41.829Z,62.52
2022-10-10T16:25:21.983Z,62.67
2022-10-10T16:27:50.336Z,62.52
2022-10-10T16:30:19.840Z,62.51
2022-10-10T16:32:49.527Z,63.56
2022-10-10T16:35:17.260Z,63.34
2022-10-10T16:37:45.025Z,63.81
2022-10-10T16:40:13.312Z,64.22
2022-10-10T16:42:41.026Z,64.60
2022-10-10T16:45:10.293Z,64.30
2022-10-10T16:47:40.987Z,65.10
2022-10-10T16:50:12.959Z,65.04
2022-10-10T16:52:41.617Z,64.99
2022-10-10T16:55:11.273Z,65.90
2022-10-10T16:57:40.076Z,65.47
2022-10-10T17:00:10.065Z,65.43
2022-10-10T17:02:42.041Z,68.33
2022-10-10T17:05:10.032Z,67.35
2022-10-10T17:07:41.463Z,66.91
2022-10-10T17:10:10.266Z,67.86
2022-10-10T17:12:37.988Z,67.75
2022-10-10T17:15:06.943Z,67.85
2022-10-10T17:17:35.211Z,68.15
2022-10-10T17:20:03.008Z,68.57
2022-10-10T17:22:30.904Z,68.54
2022-10-10T17:25:00.053Z,68.87
2022-10-10T17:27:27.864Z,68.86
2022-10-10T17:29:57.841Z,69.27
2022-10-10T17:32:26.407Z,69.12
2022-10-10T17:34:55.553Z,68.97
2022-10-10T17:37:23.329Z,69.08
2022-10-10T17:39:51.173Z,69.15
2022-10-10T17:42:20.517Z,69.31
2022-10-10T17:44:52.510Z,69.68
2022-10-10T17:47:25.857Z,69.91
2022-10-10T17:49:54.508Z,69.86
2022-10-10T17:52:26.464Z,70.71
2022-10-10T17:54:56.553Z,71.14
2022-10-10T17:57:25.734Z,71.41
2022-10-10T17:59:53.459Z,70.95
2022-10-10T18:02:21.207Z,71.06
2022-10-10T18:04:49.016Z,71.15
2022-10-10T18:07:18.591Z,70.88
2022-10-10T18:09:46.377Z,70.86
2022-10-10T18:12:16.180Z,70.52
2022-10-10T18:14:45.488Z,71.51
2022-10-10T18:17:13.910Z,71.30
2022-10-10T18:19:41.690Z,71.67
2022-10-10T18:22:09.440Z,73.52
2022-10-10T18:24:37.185Z,77.24
2022-10-10T18:27:05.081Z,72.04
2022-10-10T18:29:32.907Z,69.03
2022-10-10T18:32:01.989Z,67.12
2022-10-10T18:34:29.833Z,68.46
2022-10-10T18:36:57.623Z,72.83
2022-10-10T18:39:29.457Z,77.46
2022-10-10T18:42:00.110Z,77.69
2022-10-10T18:44:28.030Z,77.41
2022-10-10T18:46:56.255Z,78.00
2022-10-10T18:49:27.613Z,78.08
2022-10-10T18:51:55.552Z,79.79
2022-10-10T18:54:23.385Z,82.51
